createdAt,value
2022-12-01T00:00:59.397Z,101384.53
2022-12-01T00:04:02.170Z,101380.69
2022-12-01T00:07:06.191Z,101372.53
2022-12-01T00:10:26.632Z,101375.69
2022-12-01T00:13:30.330Z,101370.44
2022-12-01T00:16:34.180Z,101371.53
2022-12-01T00:19:37.653Z,101370.03
2022-12-01T00:22:47.769Z,101370.44
2022-12-01T00:25:50.533Z,101373.31
2022-12-01T00:28:58.995Z,101368.06
2022-12-01T00:32:01.897Z,101372.50
2022-12-01T00:35:05.744Z,101366.69
2022-12-01T00:38:08.622Z,101374.00
2022-12-01T00:41:11.650Z,101363.81
2022-12-01T00:44:14.420Z,101374.88
2022-12-01T00:47:17.373Z,101369.91
2022-12-01T00:50:20.253Z,101367.59
2022-12-01T00:53:24.752Z,101368.66
2022-12-01T00:56:27.604Z,101361.75
2022-12-01T00:59:30.485Z,101358.28
2022-12-01T01:02:33.290Z,101363.84
2022-12-01T01:05:41.034Z,101370.44
2022-12-01T01:08:43.869Z,101365.38
2022-12-01T01:11:46.653Z,101360.66
2022-12-01T01:14:49.410Z,101353.44
2022-12-01T01:17:52.217Z,101357.75
2022-12-01T01:20:59.257Z,101357.88
2022-12-01T01:24:02.239Z,101368.22
2022-12-01T01:27:06.287Z,101363.94
2022-12-01T01:30:09.581Z,101363.81
2022-12-01T01:33:12.480Z,101362.97
2022-12-01T01:36:16.081Z,101359.09
2022-12-01T01:39:18.950Z,101353.44
2022-12-01T01:42:22.280Z,101354.38
2022-12-01T01:45:29.271Z,101351.75
2022-12-01T01:48:33.805Z,101351.59
2022-12-01T01:51:47.071Z,101352.06
2022-12-01T01:54:54.236Z,101354.09
2022-12-01T01:57:57.619Z,101350.88
2022-12-01T02:01:00.806Z,101358.06
2022-12-01T02:04:04.357Z,101347.19
2022-12-01T02:07:08.561Z,101348.53
2022-12-01T02:10:14.788Z,101351.91
2022-12-01T02:13:33.469Z,101346.66
2022-12-01T02:16:50.126Z,101350.09
2022-12-01T02:20:17.741Z,101347.59
2022-12-01T02:23:51.212Z,101347.25
2022-12-01T02:27:07.216Z,101353.50
2022-12-01T02:30:36.526Z,101346.53
2022-12-01T02:33:43.918Z,101348.25
2022-12-01T02:36:53.307Z,101348.94
2022-12-01T02:40:06.443Z,101348.41
2022-12-01T02:43:31.652Z,101345.25
2022-12-01T02:46:40.032Z,101339.19
2022-12-01T02:49:50.046Z,101338.47
2022-12-01T02:52:54.466Z,101344.28
2022-12-01T02:55:59.282Z,101330.88
2022-12-01T02:59:02.185Z,101333.63
2022-12-01T03:02:43.471Z,101332.66
2022-12-01T03:06:03.046Z,101338.53
2022-12-01T03:09:24.989Z,101340.09
2022-12-01T03:12:42.762Z,101331.94
2022-12-01T03:16:27.552Z,101329.97
2022-12-01T03:19:40.087Z,101327.66
2022-12-01T03:22:51.550Z,101342.44
2022-12-01T03:25:56.829Z,101337.72
2022-12-01T03:29:14.966Z,101332.47
2022-12-01T03:32:28.376Z,101337.72
2022-12-01T03:35:41.986Z,101346.84
2022-12-01T03:38:48.993Z,101340.84
2022-12-01T03:42:04.865Z,101343.28
2022-12-01T03:45:12.117Z,101339.13
2022-12-01T03:48:15.096Z,101345.78
2022-12-01T03:51:39.575Z,101340.53
2022-12-01T03:55:06.831Z,101347.59
2022-12-01T03:58:14.802Z,101348.13
2022-12-01T04:01:17.784Z,101343.41
2022-12-01T04:04:20.803Z,101337.84
2022-12-01T04:07:23.785Z,101341.16
2022-12-01T04:10:26.929Z,101344.38
2022-12-01T04:13:29.761Z,101344.63
2022-12-01T04:16:32.791Z,101340.22
2022-12-01T04:19:35.862Z,101342.66
2022-12-01T04:22:39.187Z,101337.59
2022-12-01T04:25:41.991Z,101328.72
2022-12-01T04:28:44.830Z,101333.06
2022-12-01T04:31:47.808Z,101338.66
2022-12-01T04:34:50.612Z,101333.28
2022-12-01T04:37:53.507Z,101338.06
2022-12-01T04:40:56.424Z,101332.38
2022-12-01T04:43:59.178Z,101340.38
2022-12-01T04:47:03.350Z,101343.19
2022-12-01T04:50:06.714Z,101344.31
2022-12-01T04:53:09.459Z,101336.66
2022-12-01T04:56:12.395Z,101355.50
2022-12-01T04:59:15.233Z,101351.38
2022-12-01T05:02:18.046Z,101349.47
2022-12-01T05:05:20.865Z,101346.13
2022-12-01T05:08:23.709Z,101348.06
2022-12-01T05:11:28.707Z,101357.06
2022-12-01T05:14:31.460Z,101342.00
2022-12-01T05:17:37.055Z,101346.88
2022-12-01T05:20:58.207Z,101351.50
2022-12-01T05:24:00.879Z,101352.53
2022-12-01T05:27:03.682Z,101347.44
2022-12-01T05:30:07.363Z,101346.44
2022-12-01T05:33:10.206Z,101343.38
2022-12-01T05:36:13.013Z,101346.84
2022-12-01T05:39:15.910Z,101349.88
2022-12-01T05:42:18.593Z,101351.66
2022-12-01T05:45:21.352Z,101351.22
2022-12-01T05:48:24.767Z,101363.47
2022-12-01T05:51:27.624Z,101355.50
2022-12-01T05:54:30.694Z,101358.56
2022-12-01T05:57:34.065Z,101353.56
2022-12-01T06:00:45.043Z,101360.13
2022-12-01T06:03:48.766Z,101364.25
2022-12-01T06:06:51.782Z,101362.91
2022-12-01T06:09:54.593Z,101369.31
2022-12-01T06:12:57.386Z,101372.22
2022-12-01T06:16:03.277Z,101372.34
2022-12-01T06:19:06.131Z,101375.69
2022-12-01T06:22:09.087Z,101379.25
2022-12-01T06:25:11.971Z,101372.75
2022-12-01T06:28:15.132Z,101380.31
2022-12-01T06:31:18.046Z,101383.09
2022-12-01T06:34:20.882Z,101386.53
2022-12-01T06:37:23.743Z,101395.06
2022-12-01T06:40:27.687Z,101390.50
2022-12-01T06:43:30.804Z,101401.66
2022-12-01T06:46:34.458Z,101391.47
2022-12-01T06:49:38.227Z,101399.34
2022-12-01T06:52:41.000Z,101396.31
2022-12-01T06:55:43.930Z,101404.91
2022-12-01T06:58:49.724Z,101400.19
2022-12-01T07:01:53.207Z,101401.75
2022-12-01T07:04:56.638Z,101408.44
2022-12-01T07:08:04.546Z,101415.72
2022-12-01T07:11:10.031Z,101409.31
2022-12-01T07:14:27.177Z,101408.59
2022-12-01T07:17:33.616Z,101413.84
2022-12-01T07:20:36.618Z,101415.44
2022-12-01T07:23:40.153Z,101409.69
2022-12-01T07:26:43.762Z,101419.22
2022-12-01T07:29:47.528Z,101413.41
2022-12-01T07:32:50.937Z,101417.56
2022-12-01T07:35:56.376Z,101407.91
2022-12-01T07:39:00.570Z,101399.31
2022-12-01T07:42:04.470Z,101395.50
2022-12-01T07:45:08.849Z,101423.00
2022-12-01T07:48:11.703Z,101420.81
2022-12-01T07:51:16.870Z,101418.72
2022-12-01T07:54:21.437Z,101417.78
2022-12-01T07:57:24.581Z,101411.19
2022-12-01T08:00:27.702Z,101410.06
2022-12-01T08:03:32.384Z,101414.81
2022-12-01T08:06:39.966Z,101408.16
2022-12-01T08:09:45.791Z,101410.69
2022-12-01T08:12:50.302Z,101415.88
2022-12-01T08:15:56.812Z,101413.50
2022-12-01T08:19:03.413Z,101418.81
2022-12-01T08:22:09.404Z,101408.59
2022-12-01T08:25:12.270Z,101414.31
2022-12-01T08:28:15.605Z,101411.16
2022-12-01T08:31:20.298Z,101412.22
2022-12-01T08:34:24.310Z,101420.22
2022-12-01T08:37:27.943Z,101416.06
2022-12-01T08:40:30.986Z,101413.72
2022-12-01T08:43:56.724Z,101424.13
2022-12-01T08:46:58.066Z,101418.75
2022-12-01T08:50:01.294Z,101422.50
2022-12-01T08:53:04.246Z,101430.41
2022-12-01T08:56:11.295Z,101420.78
2022-12-01T08:59:14.381Z,101443.41
2022-12-01T09:02:26.827Z,101429.38
2022-12-01T09:05:31.143Z,101424.72
2022-12-01T09:08:36.138Z,101435.16
2022-12-01T09:11:48.127Z,101438.78
2022-12-01T09:14:51.334Z,101431.06
2022-12-01T09:17:57.265Z,101430.22
2022-12-01T09:21:01.108Z,101432.47
2022-12-01T09:24:05.847Z,101425.84
2022-12-01T09:27:10.408Z,101416.44
2022-12-01T09:30:14.532Z,101421.59
2022-12-01T09:33:18.530Z,101419.69
2022-12-01T09:36:22.311Z,101431.16
2022-12-01T09:39:25.508Z,101425.72
2022-12-01T09:42:33.835Z,101427.63
2022-12-01T09:45:44.389Z,101432.91
2022-12-01T09:48:49.807Z,101419.84
2022-12-01T09:51:54.507Z,101407.78
2022-12-01T09:55:00.801Z,101425.00
2022-12-01T09:58:06.419Z,101417.91
2022-12-01T10:01:17.694Z,101417.81
2022-12-01T10:04:42.907Z,101425.22
2022-12-01T10:07:54.317Z,101405.22
2022-12-01T10:11:05.868Z,101398.94
2022-12-01T10:14:20.217Z,101406.72
2022-12-01T10:17:58.175Z,101400.94
2022-12-01T10:21:25.576Z,101402.13
2022-12-01T10:24:52.278Z,101394.47
2022-12-01T10:28:31.226Z,101388.47
2022-12-01T10:31:53.622Z,101390.44
2022-12-01T10:35:03.930Z,101391.69
2022-12-01T10:38:19.832Z,101388.25
2022-12-01T10:41:26.255Z,101389.09
2022-12-01T10:44:34.156Z,101388.69
2022-12-01T10:47:38.334Z,101386.66
2022-12-01T10:50:47.626Z,101388.56
2022-12-01T10:53:59.465Z,101380.25
2022-12-01T10:57:03.835Z,101383.56
2022-12-01T11:00:09.195Z,101378.63
2022-12-01T11:03:29.771Z,101384.66
2022-12-01T11:06:35.413Z,101377.59
2022-12-01T11:09:38.697Z,101368.84
2022-12-01T11:12:43.827Z,101366.25
2022-12-01T11:16:07.505Z,101372.72
2022-12-01T11:19:34.171Z,101364.34
2022-12-01T11:22:37.749Z,101369.81
2022-12-01T11:25:41.068Z,101364.44
2022-12-01T11:28:52.106Z,101355.59
2022-12-01T11:31:55.542Z,101362.84
2022-12-01T11:35:03.022Z,101354.84
2022-12-01T11:41:41.301Z,101363.28
2022-12-01T11:45:03.502Z,101349.69
2022-12-01T11:48:12.494Z,101350.50
2022-12-01T11:51:18.405Z,101363.00
2022-12-01T11:54:26.624Z,101360.66
2022-12-01T11:57:35.026Z,101364.06
2022-12-01T12:00:50.311Z,101367.50
2022-12-01T12:04:12.717Z,101363.59
2022-12-01T12:07:28.287Z,101360.19
2022-12-01T12:11:00.865Z,101360.03
2022-12-01T12:14:28.522Z,101366.75
2022-12-01T12:17:49.246Z,101357.09
2022-12-01T12:21:10.622Z,101365.66
2022-12-01T12:24:25.807Z,101364.31
2022-12-01T12:27:34.559Z,101363.03
2022-12-01T12:30:49.409Z,101359.06
2022-12-01T12:34:24.040Z,101370.56
2022-12-01T12:37:41.530Z,101353.75
2022-12-01T12:40:53.639Z,101369.09
2022-12-01T12:44:08.881Z,101358.94
2022-12-01T12:47:20.176Z,101350.81
2022-12-01T12:51:03.689Z,101360.91
2022-12-01T12:54:12.518Z,101358.94
2022-12-01T12:57:43.688Z,101359.31
2022-12-01T13:00:52.558Z,101359.44
2022-12-01T13:04:03.872Z,101353.22
2022-12-01T13:07:29.159Z,101353.47
2022-12-01T13:10:38.243Z,101364.13
2022-12-01T13:14:01.262Z,101355.38
2022-12-01T13:17:21.759Z,101355.81
2022-12-01T13:20:29.991Z,101351.66
2022-12-01T13:23:34.525Z,101353.81
2022-12-01T13:26:40.222Z,101349.38
2022-12-01T13:29:52.558Z,101353.34
2022-12-01T13:33:05.380Z,101347.38
2022-12-01T13:39:37.344Z,101362.09
2022-12-01T13:42:40.804Z,101363.91
2022-12-01T13:45:43.907Z,101356.34
2022-12-01T13:48:46.872Z,101363.75
2022-12-01T13:52:26.921Z,101361.13
2022-12-01T13:55:30.032Z,101351.38
2022-12-01T13:58:35.733Z,101362.25
2022-12-01T14:01:43.838Z,101352.97
2022-12-01T14:04:47.269Z,101356.13
2022-12-01T14:07:54.675Z,101361.94
2022-12-01T14:11:00.223Z,101357.94
2022-12-01T14:14:09.119Z,101353.19
2022-12-01T14:17:29.168Z,101356.41
2022-12-01T14:20:37.979Z,101355.72
2022-12-01T14:24:01.178Z,101362.69
2022-12-01T14:27:06.118Z,101351.75
2022-12-01T14:30:40.406Z,101359.00
2022-12-01T14:33:45.205Z,101357.94
2022-12-01T14:36:57.124Z,101356.41
2022-12-01T14:40:08.582Z,101358.38
2022-12-01T14:43:31.316Z,101360.19
2022-12-01T14:46:49.266Z,101359.59
2022-12-01T14:50:13.443Z,101361.03
2022-12-01T14:53:25.179Z,101353.56
2022-12-01T14:56:28.727Z,101340.78
2022-12-01T14:59:31.722Z,101350.47
2022-12-01T15:02:39.730Z,101356.72
2022-12-01T15:05:44.357Z,101342.44
2022-12-01T15:09:31.505Z,101340.97
2022-12-01T15:12:29.727Z,101351.28
2022-12-01T15:15:32.682Z,101339.13
2022-12-01T15:18:39.696Z,101351.56
2022-12-01T15:21:42.610Z,101341.53
2022-12-01T15:24:46.076Z,101343.72
2022-12-01T15:28:12.103Z,101350.38
2022-12-01T15:31:16.237Z,101345.66
2022-12-01T15:34:42.295Z,101355.63
2022-12-01T15:37:46.271Z,101347.75
2022-12-01T15:44:22.178Z,101359.09
2022-12-01T15:47:38.437Z,101357.19
2022-12-01T15:50:46.456Z,101345.91
2022-12-01T15:53:54.521Z,101355.66
2022-12-01T15:56:59.340Z,101357.44
2022-12-01T16:00:02.498Z,101356.09
2022-12-01T16:03:15.942Z,101361.63
2022-12-01T16:06:20.650Z,101353.25
2022-12-01T16:09:42.072Z,101367.72
2022-12-01T16:12:44.865Z,101370.28
2022-12-01T16:15:48.126Z,101359.69
2022-12-01T16:18:57.212Z,101361.19
2022-12-01T16:22:14.270Z,101359.91
2022-12-01T16:25:32.849Z,101369.16
2022-12-01T16:28:36.189Z,101368.25
2022-12-01T16:31:58.754Z,101377.13
2022-12-01T16:35:04.430Z,101364.88
2022-12-01T16:38:19.643Z,101365.03
2022-12-01T16:41:37.896Z,101362.53
2022-12-01T16:44:42.821Z,101375.38
2022-12-01T16:47:48.338Z,101369.06
2022-12-01T16:50:52.156Z,101376.63
2022-12-01T16:53:56.536Z,101375.28
2022-12-01T16:56:59.430Z,101375.59
2022-12-01T17:00:02.478Z,101371.25
2022-12-01T17:03:12.006Z,101379.56
2022-12-01T17:06:18.551Z,101375.47
2022-12-01T17:09:22.851Z,101378.88
2022-12-01T17:12:26.868Z,101379.63
2022-12-01T17:15:29.764Z,101382.03
2022-12-01T17:18:35.744Z,101383.97
2022-12-01T17:21:38.486Z,101382.41
2022-12-01T17:24:41.538Z,101372.78
2022-12-01T17:27:44.361Z,101372.03
2022-12-01T17:30:47.403Z,101372.59
2022-12-01T17:33:51.727Z,101373.78
2022-12-01T17:36:54.490Z,101377.38
2022-12-01T17:39:57.507Z,101376.31
2022-12-01T17:43:00.572Z,101379.72
2022-12-01T17:46:05.720Z,101382.81
2022-12-01T17:49:10.790Z,101387.25
2022-12-01T17:52:13.651Z,101386.91
2022-12-01T17:55:17.756Z,101384.41
2022-12-01T17:58:21.757Z,101384.41
2022-12-01T18:01:29.978Z,101396.44
2022-12-01T18:04:34.836Z,101392.75
2022-12-01T18:07:37.992Z,101394.69
2022-12-01T18:10:40.780Z,101392.19
2022-12-01T18:13:47.134Z,101390.28
2022-12-01T18:16:50.612Z,101398.00
2022-12-01T18:19:53.655Z,101386.28
2022-12-01T18:22:56.655Z,101382.53
2022-12-01T18:26:09.685Z,101390.53
2022-12-01T18:29:26.008Z,101387.13
2022-12-01T18:32:29.313Z,101387.78
2022-12-01T18:35:32.390Z,101380.94
2022-12-01T18:38:35.675Z,101376.94
2022-12-01T18:41:39.246Z,101383.56
2022-12-01T18:44:42.511Z,101382.75
2022-12-01T18:47:45.825Z,101384.81
2022-12-01T18:50:48.838Z,101393.38
2022-12-01T18:53:55.074Z,101396.25
2022-12-01T18:56:59.126Z,101396.00
2022-12-01T19:00:04.627Z,101392.81
2022-12-01T19:03:07.890Z,101390.78
2022-12-01T19:06:13.111Z,101393.94
2022-12-01T19:09:17.627Z,101395.72
2022-12-01T19:12:20.931Z,101403.03
2022-12-01T19:15:23.796Z,101397.25
2022-12-01T19:18:27.068Z,101397.50
2022-12-01T19:21:30.249Z,101403.31
2022-12-01T19:24:35.592Z,101403.88
2022-12-01T19:27:41.081Z,101395.84
2022-12-01T19:30:48.075Z,101400.41
2022-12-01T19:33:53.488Z,101408.81
2022-12-01T19:36:56.970Z,101414.03
2022-12-01T19:40:00.270Z,101410.03
2022-12-01T19:43:03.351Z,101415.41
2022-12-01T19:46:12.961Z,101412.50
2022-12-01T19:49:15.922Z,101408.53
2022-12-01T19:52:19.173Z,101410.88
2022-12-01T19:55:22.010Z,101401.50
2022-12-01T19:58:25.671Z,101408.13
2022-12-01T20:01:29.398Z,101411.28
2022-12-01T20:04:32.376Z,101405.09
2022-12-01T20:07:35.550Z,101408.81
2022-12-01T20:10:38.345Z,101402.75
2022-12-01T20:13:43.095Z,101405.75
2022-12-01T20:16:46.282Z,101394.59
2022-12-01T20:19:49.346Z,101404.09
2022-12-01T20:22:52.399Z,101395.97
2022-12-01T20:25:59.183Z,101401.75
2022-12-01T20:29:05.515Z,101406.72
2022-12-01T20:32:08.714Z,101406.03
2022-12-01T20:35:12.266Z,101413.75
2022-12-01T20:38:15.565Z,101411.38
2022-12-01T20:41:18.498Z,101403.81
2022-12-01T20:44:22.311Z,101415.00
2022-12-01T20:47:25.479Z,101407.56
2022-12-01T20:50:28.589Z,101405.06
2022-12-01T20:53:31.941Z,101414.88
2022-12-01T20:56:35.052Z,101414.19
2022-12-01T20:59:38.045Z,101415.03
2022-12-01T21:02:41.206Z,101409.25
2022-12-01T21:05:44.731Z,101405.22
2022-12-01T21:08:49.848Z,101414.75
2022-12-01T21:12:12.171Z,101413.09
2022-12-01T21:15:25.246Z,101415.28
2022-12-01T21:18:34.860Z,101420.41
2022-12-01T21:21:41.811Z,101413.66
2022-12-01T21:24:50.006Z,101416.81
2022-12-01T21:27:58.259Z,101418.47
2022-12-01T21:31:12.661Z,101420.94
2022-12-01T21:34:22.644Z,101425.19
2022-12-01T21:37:25.639Z,101421.59
2022-12-01T21:40:28.842Z,101426.16
2022-12-01T21:43:36.694Z,101416.50
2022-12-01T21:46:42.493Z,101416.50
2022-12-01T21:49:46.103Z,101415.25
2022-12-01T21:52:49.559Z,101414.84
2022-12-01T21:55:52.485Z,101421.03
2022-12-01T21:58:59.426Z,101414.97
2022-12-01T22:02:07.970Z,101427.38
2022-12-01T22:05:41.644Z,101425.13
2022-12-01T22:08:48.611Z,101424.34
2022-12-01T22:11:56.940Z,101425.16
2022-12-01T22:15:02.083Z,101425.88
2022-12-01T22:18:25.618Z,101427.38
2022-12-01T22:21:32.604Z,101427.00
2022-12-01T22:24:46.867Z,101429.16
2022-12-01T22:27:49.733Z,101421.59
2022-12-01T22:30:52.623Z,101423.38
2022-12-01T22:34:03.366Z,101419.13
2022-12-01T22:37:21.759Z,101425.63
2022-12-01T22:40:48.312Z,101424.25
2022-12-01T22:43:52.343Z,101424.25
2022-12-01T22:47:01.398Z,101422.19
2022-12-01T22:50:29.050Z,101422.59
2022-12-01T22:53:31.812Z,101411.97
2022-12-01T22:56:46.589Z,101408.94
2022-12-01T22:59:50.473Z,101403.44
2022-12-01T23:02:55.800Z,101409.22
2022-12-01T23:05:58.727Z,101400.53
2022-12-01T23:09:02.142Z,101411.16
2022-12-01T23:12:35.199Z,101399.81
2022-12-01T23:15:38.106Z,101393.63
2022-12-01T23:18:41.185Z,101398.19
2022-12-01T23:21:44.089Z,101399.44
2022-12-01T23:24:47.162Z,101397.75
2022-12-01T23:27:53.150Z,101395.44
2022-12-01T23:30:59.216Z,101398.72
2022-12-01T23:34:01.971Z,101399.31
2022-12-01T23:37:16.821Z,101386.88
2022-12-01T23:40:23.483Z,101391.69
2022-12-01T23:43:30.184Z,101396.53
2022-12-01T23:46:33.060Z,101387.44
2022-12-01T23:49:36.207Z,101393.94
2022-12-01T23:52:39.233Z,101389.53
2022-12-01T23:55:42.010Z,101402.06
2022-12-01T23:58:45.541Z,101396.69
